Time;durP1;ratioP1;P1;durP2;ratioP2;P2;SDS_P1;SDS_P2;PMS_P1;PMS_P2;Temp;Humidity;BMP_temperature;BMP_pressure;BME280_temperature;BME280_humidity;BME280_pressure;Samples;Min_cycle;Max_cycle;Signal;HPM_P1;HPM_P2
2023/01/19 00:01:41;;;;;;;6.15;3.97;;;;;;;;;;6268018;22;20077;-95
2023/01/19 00:04:09;;;;;;;11.75;4.10;;;;;;;;;;6256000;22;20007;-96
2023/01/19 00:07:01;;;;;;;18.38;6.50;;;;;;;;;;6256224;22;20015;-95
2023/01/19 00:09:32;;;;;;;30.80;9.95;;;;;;;;;;6255738;22;20008;-94
2023/01/19 00:12:07;;;;;;;35.28;12.93;;;;;;;;;;6255643;22;20015;-95
2023/01/19 00:23:17;;;;;;;;;;;;;;;;;;;;;
2023/01/19 00:26:32;;;;;;;;;;;;;;;;;;;;;
2023/01/19 00:29:24;;;;;;;;;;;;;;;;;;;;;
2023/01/19 01:59:52;;;;;;;12.77;6.40;;;;;;;;;;6288038;22;20103;-96
2023/01/19 02:05:07;;;;;;;13.27;6.50;;;;;;;;;;6284300;22;20050;-95
2023/01/19 03:43:08;;;;;;;4.85;1.80;;;;;;;;;;6247707;22;20035;-95
2023/01/19 03:45:36;;;;;;;5.93;2.30;;;;;;;;;;6252615;22;20008;-96
2023/01/19 03:48:03;;;;;;;5.25;2.33;;;;;;;;;;6282849;22;20004;-96
2023/01/19 03:50:30;;;;;;;3.80;2.10;;;;;;;;;;6255607;22;20008;-96
2023/01/19 03:53:07;;;;;;;4.03;2.20;;;;;;;;;;6256248;22;20000;-94
2023/01/19 03:55:34;;;;;;;7.03;3.67;;;;;;;;;;6282915;22;20250;-96
2023/01/19 03:58:00;;;;;;;6.43;4.20;;;;;;;;;;6255837;22;20267;-95
2023/01/19 04:00:26;;;;;;;6.47;3.92;;;;;;;;;;6282607;22;20381;-95
2023/01/19 04:02:52;;;;;;;7.03;4.63;;;;;;;;;;6282831;22;20167;-95
2023/01/19 04:05:19;;;;;;;9.52;5.15;;;;;;;;;;6282600;22;20083;-95
2023/01/19 04:07:47;;;;;;;6.88;4.85;;;;;;;;;;6282610;22;20008;-95
2023/01/19 04:18:43;;;;;;;8.13;4.68;;;;;;;;;;6277242;22;20300;-93
2023/01/19 04:21:19;;;;;;;7.47;4.57;;;;;;;;;;6255817;22;20012;-94
2023/01/19 04:38:11;;;;;;;10.55;7.57;;;;;;;;;;6284314;22;20158;-83
2023/01/19 04:40:37;;;;;;;9.10;5.57;;;;;;;;;;6255548;22;20007;-82
2023/01/19 04:43:03;;;;;;;10.98;6.72;;;;;;;;;;6282249;22;20074;-83
2023/01/19 04:45:29;;;;;;;12.18;6.95;;;;;;;;;;6255466;22;20303;-83
2023/01/19 04:47:55;;;;;;;12.25;7.38;;;;;;;;;;6282379;22;20007;-83
2023/01/19 04:50:22;;;;;;;23.85;14.45;;;;;;;;;;6282453;22;19996;-83
2023/01/19 04:53:06;;;;;;;17.55;10.55;;;;;;;;;;6282307;22;20050;-83
2023/01/19 04:55:32;;;;;;;14.85;9.93;;;;;;;;;;6282362;22;20066;-83
2023/01/19 04:57:58;;;;;;;22.67;13.68;;;;;;;;;;6282307;22;20011;-83
2023/01/19 05:00:25;;;;;;;30.42;17.63;;;;;;;;;;6281877;22;20050;-83
2023/01/19 05:02:51;;;;;;;48.13;24.63;;;;;;;;;;6282390;22;20004;-83
2023/01/19 05:05:17;;;;;;;34.70;18.90;;;;;;;;;;6254671;22;20004;-83
2023/01/19 05:07:44;;;;;;;22.35;13.25;;;;;;;;;;6254973;22;20014;-83
2023/01/19 05:10:10;;;;;;;21.80;12.93;;;;;;;;;;6282271;22;20000;-83
2023/01/19 05:12:36;;;;;;;23.55;13.05;;;;;;;;;;6282300;22;20003;-83
2023/01/19 05:15:03;;;;;;;22.10;11.95;;;;;;;;;;6255140;22;20010;-83
2023/01/19 05:17:29;;;;;;;18.58;11.50;;;;;;;;;;6281835;22;20014;-84
2023/01/19 05:19:55;;;;;;;19.25;11.35;;;;;;;;;;6282222;22;19996;-83
2023/01/19 05:22:21;;;;;;;16.67;11.77;;;;;;;;;;6254571;22;20362;-83
2023/01/19 05:24:47;;;;;;;15.88;11.02;;;;;;;;;;6281655;22;20418;-83
2023/01/19 05:27:14;;;;;;;19.95;13.13;;;;;;;;;;6255079;22;20007;-83
2023/01/19 05:29:40;;;;;;;25.77;17.50;;;;;;;;;;6254830;22;20004;-83
2023/01/19 05:32:06;;;;;;;23.52;15.57;;;;;;;;;;6281999;22;20000;-83
2023/01/19 05:34:32;;;;;;;22.48;16.42;;;;;;;;;;6282041;22;19999;-83
2023/01/19 05:36:58;;;;;;;28.83;18.63;;;;;;;;;;6269000;22;20016;-83
2023/01/19 05:39:25;;;;;;;26.88;17.33;;;;;;;;;;6307809;22;20038;-83
2023/01/19 05:41:51;;;;;;;21.63;15.95;;;;;;;;;;6313265;22;19999;-84
2023/01/19 05:44:17;;;;;;;25.48;17.02;;;;;;;;;;6312454;22;20369;-83
2023/01/19 05:46:43;;;;;;;22.83;15.15;;;;;;;;;;6285787;22;20086;-84
2023/01/19 05:49:11;;;;;;;22.35;15.40;;;;;;;;;;6285700;22;20014;-83
2023/01/19 05:51:38;;;;;;;23.70;16.17;;;;;;;;;;6312903;22;19995;-84
2023/01/19 05:54:05;;;;;;;27.23;18.15;;;;;;;;;;6312832;22;20000;-83
2023/01/19 05:56:31;;;;;;;28.73;16.63;;;;;;;;;;6312439;22;20378;-83
2023/01/19 05:58:58;;;;;;;34.63;22.10;;;;;;;;;;6312801;22;20000;-84
2023/01/19 06:01:24;;;;;;;31.45;21.08;;;;;;;;;;6313137;22;20007;-84
2023/01/19 06:03:50;;;;;;;40.25;24.65;;;;;;;;;;6312610;22;20346;-83
2023/01/19 06:06:17;;;;;;;30.75;19.50;;;;;;;;;;6285201;22;20015;-83
2023/01/19 06:08:43;;;;;;;49.55;31.40;;;;;;;;;;6312789;22;20078;-83
2023/01/19 06:11:10;;;;;;;50.92;29.90;;;;;;;;;;6313003;22;20006;-83
2023/01/19 06:13:38;;;;;;;31.83;21.63;;;;;;;;;;6285736;22;20000;-83
2023/01/19 06:16:04;;;;;;;27.92;18.23;;;;;;;;;;6285571;22;20011;-84
2023/01/19 06:18:30;;;;;;;28.08;18.77;;;;;;;;;;6313831;22;20254;-83
2023/01/19 06:20:59;;;;;;;32.50;21.65;;;;;;;;;;6287012;22;20010;-83
2023/01/19 06:23:26;;;;;;;24.83;17.38;;;;;;;;;;6287320;22;20029;-84
2023/01/19 06:25:52;;;;;;;24.58;16.48;;;;;;;;;;6313923;22;20027;-84
2023/01/19 06:28:18;;;;;;;37.30;24.05;;;;;;;;;;6314575;22;19999;-83
2023/01/19 06:30:48;;;;;;;37.05;24.10;;;;;;;;;;6314364;22;20068;-83
2023/01/19 06:33:14;;;;;;;42.92;26.88;;;;;;;;;;6287245;22;20026;-83
2023/01/19 06:35:42;;;;;;;35.35;22.50;;;;;;;;;;6314578;22;20004;-83
2023/01/19 06:38:08;;;;;;;32.13;21.25;;;;;;;;;;6314611;22;19999;-83
2023/01/19 06:40:34;;;;;;;30.70;21.70;;;;;;;;;;6287137;22;20266;-84
2023/01/19 06:43:00;;;;;;;43.15;28.95;;;;;;;;;;6314639;22;20025;-81
2023/01/19 06:45:26;;;;;;;50.92;32.50;;;;;;;;;;6314935;22;20025;-83
2023/01/19 06:47:52;;;;;;;63.58;40.33;;;;;;;;;;6314575;22;20011;-83
2023/01/19 06:50:19;;;;;;;55.22;35.00;;;;;;;;;;6314365;22;20164;-83
2023/01/19 06:52:45;;;;;;;43.60;29.75;;;;;;;;;;6314328;22;20086;-83
2023/01/19 06:55:12;;;;;;;51.33;33.90;;;;;;;;;;6286504;22;20003;-84
2023/01/19 06:57:39;;;;;;;48.10;28.13;;;;;;;;;;6314162;22;19995;-83
2023/01/19 07:00:07;;;;;;;50.03;31.45;;;;;;;;;;6314510;22;20074;-83
2023/01/19 07:02:34;;;;;;;50.42;32.75;;;;;;;;;;6314460;22;19999;-83
2023/01/19 07:05:00;;;;;;;68.18;40.90;;;;;;;;;;6314304;22;19999;-83
2023/01/19 07:07:27;;;;;;;58.03;35.08;;;;;;;;;;6286832;22;20045;-85
2023/01/19 07:09:53;;;;;;;48.85;31.30;;;;;;;;;;6287017;22;20000;-85
2023/01/19 07:12:19;;;;;;;45.13;28.88;;;;;;;;;;6314160;22;19999;-85
2023/01/19 07:14:45;;;;;;;43.75;28.80;;;;;;;;;;6313868;22;20082;-86
2023/01/19 07:17:12;;;;;;;44.42;28.75;;;;;;;;;;6313962;22;20006;-85
2023/01/19 07:19:38;;;;;;;92.13;70.45;;;;;;;;;;6314171;22;20011;-85
2023/01/19 07:22:04;;;;;;;66.57;52.78;;;;;;;;;;6286346;22;20061;-86
2023/01/19 07:24:32;;;;;;;47.90;28.42;;;;;;;;;;6286858;22;20003;-87
2023/01/19 07:26:58;;;;;;;51.40;29.20;;;;;;;;;;6287148;22;20011;-86
2023/01/19 07:29:24;;;;;;;88.53;48.28;;;;;;;;;;6286313;22;20408;-86
2023/01/19 07:31:53;;;;;;;52.20;30.55;;;;;;;;;;6313998;22;20022;-86
2023/01/19 07:34:19;;;;;;;44.85;26.27;;;;;;;;;;6313923;22;20006;-86
2023/01/19 07:36:46;;;;;;;48.60;29.23;;;;;;;;;;6313670;22;20064;-86
2023/01/19 07:39:12;;;;;;;37.38;24.23;;;;;;;;;;6313810;22;20010;-86
2023/01/19 07:41:38;;;;;;;34.40;23.15;;;;;;;;;;6314054;22;20003;-86
2023/01/19 07:44:04;;;;;;;31.30;22.55;;;;;;;;;;6313755;22;20042;-87
2023/01/19 07:46:30;;;;;;;33.83;23.33;;;;;;;;;;6313837;22;20011;-86
2023/01/19 07:48:56;;;;;;;34.35;22.88;;;;;;;;;;6313648;22;19999;-87
2023/01/19 07:51:22;;;;;;;39.30;25.13;;;;;;;;;;6313835;22;20003;-87
2023/01/19 07:53:51;;;;;;;33.33;23.15;;;;;;;;;;6286207;22;20038;-87
2023/01/19 07:56:17;;;;;;;19.20;13.73;;;;;;;;;;6287025;22;19995;-86
2023/01/19 07:58:43;;;;;;;17.60;12.35;;;;;;;;;;6313835;22;20014;-87
2023/01/19 08:01:11;;;;;;;17.90;13.00;;;;;;;;;;6313605;22;20003;-86
2023/01/19 08:03:37;;;;;;;20.38;13.48;;;;;;;;;;6313927;22;20007;-86
2023/01/19 08:06:05;;;;;;;19.38;13.27;;;;;;;;;;6313405;22;20023;-87
2023/01/19 08:08:32;;;;;;;20.08;13.77;;;;;;;;;;6313453;22;20003;-86
2023/01/19 08:10:58;;;;;;;22.02;15.15;;;;;;;;;;6313687;22;20006;-86
2023/01/19 08:13:24;;;;;;;30.40;18.20;;;;;;;;;;6285886;22;20034;-86
2023/01/19 08:15:51;;;;;;;26.77;16.88;;;;;;;;;;6313730;22;19999;-87
2023/01/19 08:18:17;;;;;;;28.00;19.10;;;;;;;;;;6313839;22;20007;-86
2023/01/19 08:20:43;;;;;;;36.65;22.55;;;;;;;;;;6313898;22;20305;-86
2023/01/19 08:23:09;;;;;;;25.05;16.02;;;;;;;;;;6313239;22;20034;-87
2023/01/19 08:25:37;;;;;;;19.45;13.88;;;;;;;;;;6313703;22;20006;-86
2023/01/19 08:28:04;;;;;;;19.20;13.23;;;;;;;;;;6313344;22;20385;-86
2023/01/19 08:30:31;;;;;;;23.85;15.75;;;;;;;;;;6313211;22;19995;-86
2023/01/19 08:33:02;;;;;;;27.63;17.88;;;;;;;;;;6313214;22;20385;-86
2023/01/19 08:35:31;;;;;;;28.52;19.35;;;;;;;;;;6313504;22;20066;-86
2023/01/19 08:38:00;;;;;;;25.15;17.10;;;;;;;;;;6313615;22;20007;-86
2023/01/19 08:40:27;;;;;;;25.77;18.92;;;;;;;;;;6313470;22;20235;-86
2023/01/19 08:42:59;;;;;;;24.35;17.65;;;;;;;;;;6313178;22;20048;-86
2023/01/19 08:45:26;;;;;;;22.67;15.07;;;;;;;;;;6286120;22;20003;-86
2023/01/19 08:47:52;;;;;;;24.65;16.38;;;;;;;;;;6313402;22;20239;-86
2023/01/19 08:50:18;;;;;;;30.30;20.15;;;;;;;;;;6313158;22;20011;-86
2023/01/19 08:52:44;;;;;;;23.60;15.65;;;;;;;;;;6286083;22;20398;-86
2023/01/19 08:55:10;;;;;;;18.10;13.50;;;;;;;;;;6285665;22;20278;-86
2023/01/19 08:57:36;;;;;;;22.48;15.27;;;;;;;;;;6313040;22;20000;-86
2023/01/19 09:00:03;;;;;;;16.98;13.77;;;;;;;;;;6285419;22;20006;-86
2023/01/19 09:02:29;;;;;;;19.25;14.40;;;;;;;;;;6286030;22;20314;-86
2023/01/19 09:04:55;;;;;;;17.42;13.10;;;;;;;;;;6285489;22;19999;-86
2023/01/19 09:07:21;;;;;;;15.05;11.77;;;;;;;;;;6313321;22;20073;-86
2023/01/19 09:09:47;;;;;;;15.68;12.30;;;;;;;;;;6285397;22;20074;-85
2023/01/19 09:12:13;;;;;;;16.23;12.25;;;;;;;;;;6285975;22;20007;-86
2023/01/19 09:14:39;;;;;;;15.32;11.55;;;;;;;;;;6313406;22;20007;-86
2023/01/19 09:17:05;;;;;;;17.17;12.32;;;;;;;;;;6313214;22;20060;-86
2023/01/19 09:19:31;;;;;;;19.55;12.85;;;;;;;;;;6313312;22;19999;-85
2023/01/19 09:21:58;;;;;;;20.10;12.18;;;;;;;;;;6312823;22;20003;-86
2023/01/19 09:24:24;;;;;;;26.15;14.68;;;;;;;;;;6312673;22;20003;-86
2023/01/19 09:26:51;;;;;;;27.75;18.35;;;;;;;;;;6285153;22;20080;-86
2023/01/19 09:29:17;;;;;;;27.15;17.92;;;;;;;;;;6285305;22;20082;-86
2023/01/19 09:31:44;;;;;;;28.23;18.48;;;;;;;;;;6312815;22;20337;-86
2023/01/19 09:34:11;;;;;;;26.50;20.23;;;;;;;;;;6313247;22;20003;-85
2023/01/19 09:36:38;;;;;;;34.00;23.17;;;;;;;;;;6312577;22;20018;-86
2023/01/19 09:39:04;;;;;;;47.05;30.02;;;;;;;;;;6313139;22;20299;-86
2023/01/19 09:41:33;;;;;;;42.05;27.00;;;;;;;;;;6312857;22;20026;-86
2023/01/19 09:43:59;;;;;;;38.05;25.95;;;;;;;;;;6313104;22;20421;-86
2023/01/19 09:46:37;;;;;;;40.00;25.52;;;;;;;;;;6313121;22;20027;-85
2023/01/19 09:49:11;;;;;;;43.22;26.08;;;;;;;;;;6313043;22;20381;-86
2023/01/19 09:51:40;;;;;;;41.10;26.10;;;;;;;;;;6312741;22;19999;-86
2023/01/19 09:54:14;;;;;;;43.63;28.55;;;;;;;;;;6314457;22;20023;-86
2023/01/19 09:56:41;;;;;;;50.00;31.27;;;;;;;;;;6287701;22;19999;-85
2023/01/19 09:59:26;;;;;;;35.17;22.92;;;;;;;;;;6287785;22;20035;-87
2023/01/19 10:01:55;;;;;;;27.30;20.40;;;;;;;;;;6314948;22;20026;-86
2023/01/19 10:04:21;;;;;;;33.53;20.73;;;;;;;;;;6287942;22;20003;-86
2023/01/19 10:06:48;;;;;;;30.48;20.27;;;;;;;;;;6315170;22;20007;-87
2023/01/19 10:09:23;;;;;;;36.28;23.48;;;;;;;;;;6287623;22;20094;-87
2023/01/19 10:11:57;;;;;;;33.35;22.05;;;;;;;;;;6314980;22;20022;-85
2023/01/19 10:15:02;;;;;;;31.23;20.40;;;;;;;;;;6314523;22;20370;-87
2023/01/19 10:17:49;;;;;;;42.80;26.25;;;;;;;;;;6136271;23;20089;-86
2023/01/19 10:20:22;;;;;;;63.35;38.03;;;;;;;;;;6160404;23;20010;-86
2023/01/19 10:22:49;;;;;;;60.20;35.35;;;;;;;;;;6135914;23;20100;-86
2023/01/19 10:25:20;;;;;;;47.47;27.05;;;;;;;;;;6160480;23;20156;-85
2023/01/19 10:27:46;;;;;;;50.50;30.25;;;;;;;;;;6135725;23;20005;-86
2023/01/19 10:30:22;;;;;;;38.17;24.13;;;;;;;;;;6160521;23;20006;-86
2023/01/19 10:32:48;;;;;;;27.10;18.83;;;;;;;;;;6160491;23;20001;-86
2023/01/19 10:35:20;;;;;;;31.27;19.65;;;;;;;;;;6135816;23;20373;-86
2023/01/19 10:37:46;;;;;;;26.98;18.80;;;;;;;;;;6135533;23;20100;-86
2023/01/19 10:40:12;;;;;;;23.88;16.75;;;;;;;;;;6135820;23;20006;-86
2023/01/19 10:42:40;;;;;;;21.38;15.30;;;;;;;;;;6135772;23;20001;-86
2023/01/19 10:45:16;;;;;;;25.33;17.55;;;;;;;;;;6160459;23;20001;-85
2023/01/19 10:47:43;;;;;;;18.88;13.00;;;;;;;;;;6177501;22;20003;-85
2023/01/19 10:50:27;;;;;;;23.77;16.02;;;;;;;;;;6314247;22;20092;-86
2023/01/19 10:52:54;;;;;;;19.38;13.98;;;;;;;;;;6314431;22;20362;-86
2023/01/19 10:55:30;;;;;;;36.55;25.15;;;;;;;;;;6314593;22;20021;-86
2023/01/19 10:57:57;;;;;;;28.33;18.08;;;;;;;;;;6314303;22;20045;-85
2023/01/19 11:00:29;;;;;;;19.63;14.50;;;;;;;;;;6287079;22;20007;-86
2023/01/19 11:02:55;;;;;;;19.88;14.30;;;;;;;;;;6314641;22;20270;-91
2023/01/19 11:05:23;;;;;;;22.25;15.77;;;;;;;;;;6301233;22;20003;-85
2023/01/19 11:07:49;;;;;;;20.40;14.18;;;;;;;;;;6314258;22;20082;-86
2023/01/19 11:10:15;;;;;;;14.82;11.10;;;;;;;;;;6286979;22;20049;-86
2023/01/19 11:12:42;;;;;;;16.83;12.23;;;;;;;;;;6314270;22;20045;-85
2023/01/19 11:15:16;;;;;;;20.48;14.98;;;;;;;;;;6286517;22;20007;-86
2023/01/19 11:17:47;;;;;;;19.98;14.30;;;;;;;;;;6287162;22;19995;-85
2023/01/19 11:20:20;;;;;;;16.42;12.55;;;;;;;;;;6314218;22;19996;-86
2023/01/19 11:22:46;;;;;;;19.30;13.60;;;;;;;;;;6313663;22;20004;-86
2023/01/19 11:25:21;;;;;;;18.13;13.32;;;;;;;;;;6286347;22;20137;-86
2023/01/19 11:27:50;;;;;;;26.23;17.00;;;;;;;;;;6286747;22;20004;-86
2023/01/19 11:30:18;;;;;;;28.85;19.58;;;;;;;;;;6286739;22;20027;-86
2023/01/19 11:32:45;;;;;;;23.20;17.30;;;;;;;;;;6286807;22;20003;-86
2023/01/19 11:35:30;;;;;;;28.83;21.08;;;;;;;;;;6287083;22;20004;-85
2023/01/19 11:38:06;;;;;;;22.50;18.20;;;;;;;;;;6313730;22;20038;-85
2023/01/19 11:40:33;;;;;;;25.20;19.30;;;;;;;;;;6313488;22;20045;-87
2023/01/19 11:43:00;;;;;;;22.70;17.30;;;;;;;;;;6314110;22;20035;-86
2023/01/19 11:45:26;;;;;;;21.90;15.02;;;;;;;;;;6286249;22;20373;-86
2023/01/19 11:47:52;;;;;;;41.85;21.30;;;;;;;;;;6313944;22;20007;-86
2023/01/19 11:50:21;;;;;;;19.52;12.40;;;;;;;;;;6314248;22;20066;-87
2023/01/19 11:53:03;;;;;;;13.40;10.13;;;;;;;;;;6286051;22;20010;-84
2023/01/19 11:55:29;;;;;;;16.33;10.88;;;;;;;;;;6286716;22;20324;-84
2023/01/19 11:57:55;;;;;;;8.00;6.18;;;;;;;;;;6286517;22;20350;-85
2023/01/19 12:00:30;;;;;;;6.60;5.50;;;;;;;;;;6286697;22;20270;-84
2023/01/19 12:03:03;;;;;;;6.75;5.32;;;;;;;;;;6285882;22;20018;-87
2023/01/19 12:05:33;;;;;;;7.63;5.35;;;;;;;;;;6286221;22;20018;-87
2023/01/19 12:08:02;;;;;;;4.80;4.05;;;;;;;;;;6313508;22;20007;-86
2023/01/19 12:10:31;;;;;;;5.75;3.90;;;;;;;;;;6313839;22;19999;-87
2023/01/19 12:12:57;;;;;;;4.65;2.58;;;;;;;;;;6313244;22;19999;-86
2023/01/19 12:15:26;;;;;;;7.03;4.10;;;;;;;;;;6286322;22;20385;-87
2023/01/19 12:17:54;;;;;;;7.88;4.38;;;;;;;;;;6286555;22;19999;-87
2023/01/19 12:20:39;;;;;;;3.95;3.05;;;;;;;;;;6286301;22;20023;-87
2023/01/19 12:23:24;;;;;;;3.60;2.80;;;;;;;;;;6313504;22;20049;-87
2023/01/19 12:25:53;;;;;;;3.97;3.20;;;;;;;;;;6313583;22;20362;-87
2023/01/19 12:28:22;;;;;;;5.00;3.50;;;;;;;;;;6313560;22;20087;-87
2023/01/19 12:30:50;;;;;;;9.57;4.43;;;;;;;;;;6285966;22;19999;-87
2023/01/19 12:33:21;;;;;;;8.75;4.35;;;;;;;;;;6313088;22;20000;-86
2023/01/19 12:36:01;;;;;;;7.47;3.97;;;;;;;;;;6300763;22;20321;-87
2023/01/19 12:38:30;;;;;;;9.77;6.03;;;;;;;;;;6313010;22;20006;-84
2023/01/19 12:41:15;;;;;;;14.45;7.70;;;;;;;;;;6313193;22;20366;-84
2023/01/19 12:43:41;;;;;;;9.55;5.70;;;;;;;;;;6313446;22;20010;-85
2023/01/19 12:46:23;;;;;;;7.25;5.15;;;;;;;;;;6313246;22;19999;-84
2023/01/19 12:48:50;;;;;;;7.30;5.47;;;;;;;;;;6313611;22;20072;-84
2023/01/19 12:51:23;;;;;;;8.07;5.80;;;;;;;;;;6313473;22;20048;-84
2023/01/19 12:53:51;;;;;;;11.35;9.02;;;;;;;;;;6313465;22;20070;-84
2023/01/19 12:56:18;;;;;;;10.38;7.47;;;;;;;;;;6285365;22;20297;-84
2023/01/19 12:58:48;;;;;;;7.25;3.90;;;;;;;;;;6312984;22;20004;-84
2023/01/19 13:01:17;;;;;;;10.10;5.95;;;;;;;;;;6313533;22;20003;-85
2023/01/19 13:03:43;;;;;;;11.32;7.70;;;;;;;;;;6313251;22;20027;-84
2023/01/19 13:06:09;;;;;;;11.75;8.00;;;;;;;;;;6313241;22;20010;-87
2023/01/19 13:08:54;;;;;;;8.43;5.90;;;;;;;;;;6313098;22;19999;-92
2023/01/19 13:11:20;;;;;;;6.40;3.88;;;;;;;;;;6313743;22;20010;-94
2023/01/19 13:13:49;;;;;;;8.55;4.78;;;;;;;;;;6287417;22;20003;-91
2023/01/19 13:16:18;;;;;;;8.95;5.85;;;;;;;;;;6285301;22;19999;-79
2023/01/19 13:18:50;;;;;;;14.85;8.88;;;;;;;;;;6312556;22;20302;-79
2023/01/19 13:21:37;;;;;;;6.50;5.32;;;;;;;;;;6285289;22;20030;-77
2023/01/19 13:24:05;;;;;;;7.95;5.78;;;;;;;;;;6312417;22;20003;-85
2023/01/19 13:26:38;;;;;;;9.60;5.75;;;;;;;;;;6312595;22;20027;-80
2023/01/19 13:29:04;;;;;;;15.68;10.45;;;;;;;;;;6311896;22;20104;-81
2023/01/19 13:31:37;;;;;;;9.82;6.72;;;;;;;;;;6312160;22;20373;-80
2023/01/19 13:34:04;;;;;;;247.40;133.02;;;;;;;;;;6312354;22;20370;-80
2023/01/19 13:36:35;;;;;;;26.92;14.45;;;;;;;;;;6312190;22;20016;-82
2023/01/19 13:39:12;;;;;;;20.83;11.43;;;;;;;;;;6285128;22;19999;-80
2023/01/19 13:41:39;;;;;;;27.40;13.60;;;;;;;;;;6284503;22;20248;-79
2023/01/19 13:44:18;;;;;;;16.80;8.77;;;;;;;;;;6312432;22;20003;-81
2023/01/19 13:46:45;;;;;;;13.15;6.57;;;;;;;;;;6285345;22;20003;-79
2023/01/19 13:49:16;;;;;;;22.23;10.65;;;;;;;;;;6312015;22;20362;-81
2023/01/19 13:51:42;;;;;;;14.75;8.88;;;;;;;;;;6312454;22;20000;-81
2023/01/19 13:54:15;;;;;;;18.00;9.85;;;;;;;;;;6312055;22;20078;-81
2023/01/19 13:56:46;;;;;;;18.42;9.85;;;;;;;;;;6312181;22;20006;-81
2023/01/19 13:59:12;;;;;;;25.80;13.15;;;;;;;;;;6312227;22;20082;-81
2023/01/19 14:01:43;;;;;;;15.43;8.43;;;;;;;;;;6312200;22;20010;-82
2023/01/19 14:04:29;;;;;;;23.98;10.77;;;;;;;;;;6311338;22;20034;-78
2023/01/19 14:06:57;;;;;;;35.42;12.85;;;;;;;;;;6311851;22;20010;-80
2023/01/19 14:09:23;;;;;;;23.88;9.90;;;;;;;;;;6312012;22;20079;-79
2023/01/19 14:12:07;;;;;;;53.72;17.67;;;;;;;;;;6311784;22;20069;-85
2023/01/19 14:14:33;;;;;;;13.38;7.50;;;;;;;;;;6312088;22;20044;-79
2023/01/19 14:16:59;;;;;;;23.35;10.90;;;;;;;;;;6312088;22;20019;-81
2023/01/19 14:19:26;;;;;;;45.85;17.75;;;;;;;;;;6284170;22;20365;-81
2023/01/19 14:21:59;;;;;;;11.55;7.65;;;;;;;;;;6284312;22;20086;-81
2023/01/19 14:24:28;;;;;;;42.42;17.75;;;;;;;;;;6311880;22;20003;-82
2023/01/19 14:27:06;;;;;;;30.00;13.65;;;;;;;;;;6312130;22;20285;-81
2023/01/19 14:29:36;;;;;;;51.15;21.27;;;;;;;;;;6312377;22;20258;-82
2023/01/19 14:32:02;;;;;;;19.80;11.75;;;;;;;;;;6311837;22;20000;-82
2023/01/19 14:34:40;;;;;;;16.77;10.70;;;;;;;;;;6312112;22;20086;-83
2023/01/19 14:37:14;;;;;;;13.93;8.68;;;;;;;;;;6312004;22;20060;-82
2023/01/19 14:39:43;;;;;;;11.95;8.68;;;;;;;;;;6285998;22;20057;-82
2023/01/19 14:42:24;;;;;;;15.25;9.82;;;;;;;;;;6286734;22;20003;-83
2023/01/19 14:44:51;;;;;;;13.98;9.30;;;;;;;;;;6313805;22;20007;-83
2023/01/19 14:47:25;;;;;;;12.57;8.93;;;;;;;;;;6313956;22;20006;-84
2023/01/19 14:49:51;;;;;;;12.18;8.18;;;;;;;;;;6313694;22;20082;-84
2023/01/19 14:52:17;;;;;;;15.18;9.52;;;;;;;;;;6313998;22;19999;-83
2023/01/19 14:54:44;;;;;;;15.10;9.68;;;;;;;;;;6314205;22;20110;-83
2023/01/19 14:57:12;;;;;;;12.73;8.88;;;;;;;;;;6286738;22;20007;-84
2023/01/19 14:59:38;;;;;;;15.60;10.68;;;;;;;;;;6314333;22;20050;-84
2023/01/19 15:02:04;;;;;;;17.85;10.93;;;;;;;;;;6314233;22;20022;-83
2023/01/19 15:04:30;;;;;;;19.92;10.50;;;;;;;;;;6313938;22;20011;-84
2023/01/19 15:06:56;;;;;;;77.40;21.33;;;;;;;;;;6286689;22;20007;-84
2023/01/19 15:09:22;;;;;;;18.17;9.90;;;;;;;;;;6313168;22;19999;-83
2023/01/19 15:11:49;;;;;;;13.15;9.57;;;;;;;;;;6314010;22;20003;-83
2023/01/19 15:14:16;;;;;;;13.57;9.88;;;;;;;;;;6313846;22;20003;-83
2023/01/19 15:16:43;;;;;;;20.98;12.30;;;;;;;;;;6313974;22;20006;-83
2023/01/19 15:19:10;;;;;;;26.50;14.88;;;;;;;;;;6313884;22;20324;-83
2023/01/19 15:21:40;;;;;;;14.88;9.68;;;;;;;;;;6313558;22;20000;-83
2023/01/19 15:24:06;;;;;;;18.90;11.77;;;;;;;;;;6286515;22;20003;-84
2023/01/19 15:26:32;;;;;;;49.97;21.88;;;;;;;;;;6285852;22;20382;-84
2023/01/19 15:28:58;;;;;;;19.83;12.70;;;;;;;;;;6286289;22;20274;-84
2023/01/19 15:31:25;;;;;;;115.30;38.05;;;;;;;;;;6286337;22;20052;-81
2023/01/19 15:33:52;;;;;;;18.10;11.95;;;;;;;;;;6286064;22;20004;-82
2023/01/19 15:36:19;;;;;;;77.07;29.50;;;;;;;;;;6285676;22;20057;-84
2023/01/19 15:38:45;;;;;;;20.42;11.27;;;;;;;;;;6313754;22;20003;-84
2023/01/19 15:41:12;;;;;;;223.93;73.38;;;;;;;;;;6313194;22;20082;-83
2023/01/19 15:46:56;;;;;;;100.40;38.67;;;;;;;;;;6297742;22;20070;-95
2023/01/19 15:49:44;;;;;;;40.30;19.30;;;;;;;;;;6246133;22;20012;-96
2023/01/19 15:52:33;;;;;;;47.70;19.20;;;;;;;;;;6319997;22;20027;-96
2023/01/19 15:55:18;;;;;;;40.38;17.73;;;;;;;;;;6348677;22;20018;-96
2023/01/19 16:12:24;;;;;;;415.05;202.27;;;;;;;;;;6331071;22;20033;-96
2023/01/19 16:14:58;;;;;;;189.10;86.22;;;;;;;;;;6295290;22;20453;-96
2023/01/19 16:20:24;;;;;;;15.18;9.90;;;;;;;;;;6286091;22;20022;-96
2023/01/19 16:25:27;;;;;;;31.15;18.35;;;;;;;;;;6334362;22;20025;-87
2023/01/19 16:27:53;;;;;;;111.38;36.75;;;;;;;;;;6344603;22;20012;-86
2023/01/19 16:30:19;;;;;;;61.10;25.75;;;;;;;;;;6344659;22;20009;-87
2023/01/19 16:32:46;;;;;;;55.63;26.33;;;;;;;;;;6317536;22;19999;-86
2023/01/19 16:35:14;;;;;;;128.60;48.38;;;;;;;;;;6345161;22;19999;-86
2023/01/19 16:37:40;;;;;;;48.22;26.60;;;;;;;;;;6344419;22;20020;-88
2023/01/19 16:40:11;;;;;;;235.55;93.43;;;;;;;;;;6345563;22;20007;-96
2023/01/19 17:52:37;;;;;;;20.42;14.20;;;;;;;;;;6252544;22;20054;31
2023/01/19 18:35:13;;;;;;;49.13;26.10;;;;;;;;;;6291251;22;20037;-94
2023/01/19 18:37:50;;;;;;;53.22;30.33;;;;;;;;;;6297494;22;20011;-96
2023/01/19 18:46:46;;;;;;;49.08;28.80;;;;;;;;;;6336796;22;20312;-96
2023/01/19 18:49:34;;;;;;;50.10;28.35;;;;;;;;;;6357635;22;20019;-95
2023/01/19 18:52:35;;;;;;;50.17;30.08;;;;;;;;;;6360439;22;20019;-95
2023/01/19 18:58:02;;;;;;;54.40;32.50;;;;;;;;;;6357832;22;20026;-96
2023/01/19 19:00:32;;;;;;;49.63;29.38;;;;;;;;;;6352784;22;20009;-96
2023/01/19 19:03:09;;;;;;;60.65;37.00;;;;;;;;;;6313992;22;20010;-94
2023/01/19 19:05:42;;;;;;;46.35;29.85;;;;;;;;;;6314060;22;20078;-94
2023/01/19 19:08:30;;;;;;;89.78;53.55;;;;;;;;;;6316963;22;20381;-93
2023/01/19 19:11:20;;;;;;;78.40;50.17;;;;;;;;;;6313558;22;20003;-94
2023/01/19 19:16:54;;;;;;;43.75;29.25;;;;;;;;;;6221154;22;20035;-95
2023/01/19 19:19:20;;;;;;;39.42;26.42;;;;;;;;;;6219618;23;20271;-93
2023/01/19 19:21:47;;;;;;;39.35;22.95;;;;;;;;;;6220745;23;20075;-92
2023/01/19 19:24:42;;;;;;;35.53;22.60;;;;;;;;;;6220267;23;20083;-94
2023/01/19 19:27:26;;;;;;;27.10;19.77;;;;;;;;;;6216123;22;20799;-93
2023/01/19 19:29:54;;;;;;;33.38;20.88;;;;;;;;;;6318948;22;20007;-94
2023/01/19 19:32:23;;;;;;;27.98;19.00;;;;;;;;;;6346416;22;20044;-94
2023/01/19 19:34:52;;;;;;;26.70;18.23;;;;;;;;;;6343277;22;20086;-93
2023/01/19 19:37:19;;;;;;;29.58;19.58;;;;;;;;;;6317314;22;20052;-94
2023/01/19 19:40:04;;;;;;;24.73;16.50;;;;;;;;;;6317487;22;20007;-95
2023/01/19 19:42:30;;;;;;;23.88;16.95;;;;;;;;;;6344596;22;20011;-93
2023/01/19 19:45:01;;;;;;;28.55;19.25;;;;;;;;;;6345925;22;20045;-94
2023/01/19 19:47:29;;;;;;;30.75;19.30;;;;;;;;;;6288138;22;20378;-95
2023/01/19 19:49:55;;;;;;;35.38;21.55;;;;;;;;;;6313272;22;20309;-88
2023/01/19 19:52:21;;;;;;;29.73;19.30;;;;;;;;;;6286714;22;20410;-89
2023/01/19 19:54:48;;;;;;;28.35;19.13;;;;;;;;;;6313975;22;20006;-88
2023/01/19 19:57:14;;;;;;;28.63;18.65;;;;;;;;;;6314021;22;20019;-87
2023/01/19 19:59:40;;;;;;;23.63;15.90;;;;;;;;;;6313052;22;20007;-88
2023/01/19 20:02:06;;;;;;;33.40;22.77;;;;;;;;;;6285375;22;20011;-92
2023/01/19 20:04:32;;;;;;;40.97;26.30;;;;;;;;;;6312397;22;19999;-87
2023/01/19 20:06:58;;;;;;;34.83;22.95;;;;;;;;;;6313146;22;20003;-87
2023/01/19 20:09:25;;;;;;;24.02;16.77;;;;;;;;;;6313416;22;20058;-87
2023/01/19 20:11:51;;;;;;;26.50;18.80;;;;;;;;;;6285550;22;20049;-88
2023/01/19 20:14:17;;;;;;;28.70;17.33;;;;;;;;;;6285975;22;20090;-88
2023/01/19 20:16:44;;;;;;;29.52;19.08;;;;;;;;;;6313336;22;20007;-88
2023/01/19 20:19:10;;;;;;;25.88;16.38;;;;;;;;;;6313534;22;20011;-88
2023/01/19 20:21:37;;;;;;;31.05;20.35;;;;;;;;;;6285544;22;20003;-88
2023/01/19 20:24:08;;;;;;;21.55;15.05;;;;;;;;;;6286195;22;20271;-89
2023/01/19 20:29:37;;;;;;;23.38;17.05;;;;;;;;;;6313233;22;20089;-90
2023/01/19 20:32:03;;;;;;;22.75;15.55;;;;;;;;;;6312776;22;20045;-88
2023/01/19 20:34:31;;;;;;;18.90;13.02;;;;;;;;;;6313461;22;19995;-89
2023/01/19 20:36:57;;;;;;;18.60;13.32;;;;;;;;;;6313740;22;20254;-94
2023/01/19 20:39:44;;;;;;;17.90;13.20;;;;;;;;;;6286506;22;20014;-94
2023/01/19 20:42:12;;;;;;;18.05;13.80;;;;;;;;;;6313738;22;20080;-92
2023/01/19 20:44:38;;;;;;;16.42;12.52;;;;;;;;;;6313459;22;19999;-94